Time;durP1;ratioP1;P1;durP2;ratioP2;P2;SDS_P1;SDS_P2;PMS_P1;PMS_P2;Temp;Humidity;BMP_temperature;BMP_pressure;BME280_temperature;BME280_humidity;BME280_pressure;Samples;Min_cycle;Max_cycle;Signal;HPM_P1;HPM_P2
2021/04/19 00:01:14;;;;;;;42.05;27.25;;;;;;;9.49;100.00;101153.84;5205389;28;20029;-78
2021/04/19 00:03:44;;;;;;;36.78;27.33;;;;;;;9.64;100.00;101155.28;5205290;28;20111;-78
2021/04/19 00:06:14;;;;;;;32.92;25.65;;;;;;;9.61;100.00;101150.09;5204567;28;20485;-78
2021/04/19 00:08:45;;;;;;;42.13;28.33;;;;;;;9.51;100.00;101148.63;5203765;28;20047;-78
2021/04/19 00:11:15;;;;;;;41.55;27.30;;;;;;;9.67;100.00;101147.38;5204982;28;20036;-78
2021/04/19 00:13:46;;;;;;;35.78;25.92;;;;;;;9.52;100.00;101147.72;5203716;28;20319;-78
2021/04/19 00:16:16;;;;;;;42.83;29.15;;;;;;;9.27;100.00;101149.13;5200396;28;20037;-77
2021/04/19 00:18:46;;;;;;;47.85;30.67;;;;;;;9.23;100.00;101145.75;5202149;28;20032;-78
2021/04/19 00:21:17;;;;;;;39.30;28.55;;;;;;;9.40;100.00;101142.75;5203348;28;20029;-77
2021/04/19 00:23:47;;;;;;;39.67;28.08;;;;;;;9.50;100.00;101149.50;5202510;28;20032;-78
2021/04/19 00:26:17;;;;;;;42.22;28.08;;;;;;;9.55;100.00;101143.31;5203355;28;20494;-78
2021/04/19 00:28:48;;;;;;;38.92;27.90;;;;;;;9.64;100.00;101142.25;5203761;28;20395;-77
2021/04/19 00:31:18;;;;;;;45.63;30.40;;;;;;;9.22;100.00;101138.81;5203051;28;20036;-77
2021/04/19 00:33:49;;;;;;;44.95;30.85;;;;;;;9.20;100.00;101147.56;5201627;28;20033;-77
2021/04/19 00:36:19;;;;;;;53.85;33.15;;;;;;;9.12;100.00;101143.38;5203086;28;20033;-77
2021/04/19 00:38:49;;;;;;;53.78;33.25;;;;;;;9.10;100.00;101137.34;5202527;28;20041;-77
2021/04/19 00:41:20;;;;;;;51.60;34.58;;;;;;;9.12;100.00;101136.44;5202961;28;20033;-77
2021/04/19 00:43:50;;;;;;;47.65;31.70;;;;;;;9.25;100.00;101135.25;5201842;28;20018;-78
2021/04/19 00:46:21;;;;;;;47.55;31.75;;;;;;;9.24;100.00;101131.81;5201372;28;20029;-78
2021/04/19 00:48:51;;;;;;;43.85;31.35;;;;;;;9.28;100.00;101127.41;5203687;28;20462;-76
2021/04/19 00:51:21;;;;;;;41.88;29.17;;;;;;;9.55;100.00;101137.22;5201452;28;20057;-78
2021/04/19 00:53:53;;;;;;;42.58;28.98;;;;;;;9.54;100.00;101135.50;5191357;28;20124;-77
2021/04/19 00:56:23;;;;;;;41.28;29.52;;;;;;;9.42;100.00;101135.75;5200884;28;20091;-77
2021/04/19 00:58:53;;;;;;;47.72;30.25;;;;;;;9.33;100.00;101142.03;5203074;28;20021;-77
2021/04/19 01:01:24;;;;;;;43.95;30.65;;;;;;;9.27;100.00;101136.09;5203121;28;20117;-77
2021/04/19 01:03:54;;;;;;;42.85;30.13;;;;;;;9.41;100.00;101134.03;5203252;28;20033;-78
2021/04/19 01:06:24;;;;;;;46.85;30.70;;;;;;;9.25;100.00;101138.75;5202495;28;20077;-77
2021/04/19 01:08:54;;;;;;;43.30;29.48;;;;;;;9.19;100.00;101148.44;5202813;28;20104;-77
2021/04/19 01:11:25;;;;;;;50.03;33.38;;;;;;;8.84;100.00;101150.91;5203312;28;20487;-77
2021/04/19 01:13:55;;;;;;;56.42;36.08;;;;;;;8.80;100.00;101149.25;5202385;28;20021;-78
2021/04/19 01:16:25;;;;;;;58.08;37.30;;;;;;;8.80;100.00;101158.81;5201974;28;20091;-77
2021/04/19 01:18:56;;;;;;;58.35;38.70;;;;;;;8.76;100.00;101151.94;5202421;28;20056;-77
2021/04/19 01:21:26;;;;;;;60.33;38.70;;;;;;;8.79;100.00;101157.97;5206936;28;20032;-77
2021/04/19 01:23:56;;;;;;;59.40;38.35;;;;;;;8.78;100.00;101161.44;5203771;28;20030;-76
2021/04/19 01:26:27;;;;;;;61.28;38.65;;;;;;;8.73;100.00;101158.06;5200967;28;20022;-78
2021/04/19 01:28:57;;;;;;;61.13;37.55;;;;;;;8.86;100.00;101150.88;5201785;28;20026;-77
2021/04/19 01:31:27;;;;;;;59.35;38.67;;;;;;;8.80;100.00;101159.69;5202678;28;20030;-77
2021/04/19 01:33:58;;;;;;;62.70;38.67;;;;;;;8.74;100.00;101148.50;5201279;28;20033;-77
2021/04/19 01:36:29;;;;;;;55.88;36.85;;;;;;;8.73;100.00;101158.06;5202350;28;20112;-78
2021/04/19 01:38:59;;;;;;;50.92;33.03;;;;;;;8.86;100.00;101145.69;5201071;28;20033;-78
2021/04/19 01:41:30;;;;;;;46.90;32.70;;;;;;;8.81;100.00;101156.19;5202008;28;20030;-77
2021/04/19 01:44:02;;;;;;;52.92;33.42;;;;;;;8.60;100.00;101158.31;5201909;28;20088;-77
2021/04/19 01:46:32;;;;;;;54.38;34.97;;;;;;;8.59;100.00;101154.00;5205095;28;20441;-77
2021/04/19 01:49:20;;;;;;;51.85;33.55;;;;;;;8.64;100.00;101158.25;5205643;28;20029;-77
2021/04/19 01:51:50;;;;;;;52.25;32.17;;;;;;;8.65;100.00;101154.75;5203634;28;20545;-77
2021/04/19 01:54:20;;;;;;;56.90;33.90;;;;;;;8.55;100.00;101154.94;5204824;28;20033;-78
2021/04/19 01:56:51;;;;;;;47.33;31.83;;;;;;;8.63;100.00;101159.13;5205567;28;20056;-77
2021/04/19 01:59:22;;;;;;;47.53;32.95;;;;;;;8.62;100.00;101148.72;5203086;28;20026;-78
2021/04/19 02:02:14;;;;;;;50.35;32.15;;;;;;;8.78;100.00;101151.03;5205096;28;20025;-78
2021/04/19 02:05:20;;;;;;;52.85;32.63;;;;;;;8.74;100.00;101143.28;5205706;28;20032;-78
2021/04/19 02:08:00;;;;;;;50.50;32.55;;;;;;;8.88;100.00;101147.34;5204596;28;20030;-77
2021/04/19 02:10:43;;;;;;;53.92;31.88;;;;;;;9.04;100.00;101148.75;5204421;28;20116;-77
2021/04/19 02:13:32;;;;;;;52.63;32.78;;;;;;;8.88;100.00;101147.34;5205265;28;20018;-78
2021/04/19 02:16:25;;;;;;;50.22;31.35;;;;;;;8.99;100.00;101142.78;5204885;28;20095;-77
2021/04/19 02:19:20;;;;;;;49.00;31.33;;;;;;;8.88;100.00;101142.13;5203115;28;20504;-77
2021/04/19 02:21:54;;;;;;;46.90;29.92;;;;;;;8.89;100.00;101145.59;5201197;28;20495;-78
2021/04/19 02:24:29;;;;;;;49.75;31.48;;;;;;;8.81;100.00;101137.94;5203852;28;20033;-78
2021/04/19 02:27:05;;;;;;;46.20;31.20;;;;;;;8.70;100.00;101150.28;5203660;28;20025;-77
2021/04/19 02:29:44;;;;;;;48.75;31.25;;;;;;;8.60;100.00;101151.38;5203978;28;20048;-77
2021/04/19 02:32:24;;;;;;;48.85;32.70;;;;;;;8.43;100.00;101153.44;5203455;28;20435;-78
2021/04/19 02:34:59;;;;;;;50.13;31.85;;;;;;;8.61;100.00;101155.69;5202133;28;20029;-78
2021/04/19 02:37:32;;;;;;;46.40;30.23;;;;;;;8.68;100.00;101154.69;5204705;28;20181;-78
2021/04/19 02:40:06;;;;;;;45.42;29.05;;;;;;;8.74;100.00;101156.31;5204915;28;20033;-78
2021/04/19 02:42:42;;;;;;;43.38;27.45;;;;;;;8.63;100.00;101159.13;5204995;28;20072;-77
2021/04/19 02:45:14;;;;;;;41.38;28.38;;;;;;;8.69;100.00;101159.00;5204413;28;20495;-77
2021/04/19 02:47:46;;;;;;;44.15;27.95;;;;;;;8.64;100.00;101155.63;5199519;28;20036;-78
2021/04/19 02:50:20;;;;;;;41.50;29.15;;;;;;;8.76;100.00;101158.00;5200413;28;20044;-77
2021/04/19 02:52:51;;;;;;;42.25;28.58;;;;;;;8.72;100.00;101145.91;5204328;28;20040;-77
2021/04/19 02:55:29;;;;;;;42.95;27.52;;;;;;;8.66;100.00;101156.47;5203264;28;20033;-77
2021/04/19 02:58:02;;;;;;;39.33;26.13;;;;;;;8.62;100.00;101141.78;5204064;28;20025;-76
2021/04/19 03:00:42;;;;;;;39.95;26.25;;;;;;;8.57;100.00;101146.19;5204636;28;20052;-77
2021/04/19 03:03:19;;;;;;;36.40;26.25;;;;;;;8.81;100.00;101152.69;5203504;28;20029;-77
2021/04/19 03:05:50;;;;;;;39.42;25.05;;;;;;;8.77;100.00;101146.72;5201566;28;20060;-78
2021/04/19 03:08:23;;;;;;;38.85;26.05;;;;;;;8.62;100.00;101144.38;5204355;28;20058;-77
2021/04/19 03:11:16;;;;;;;38.75;24.73;;;;;;;8.63;100.00;101150.44;5203099;28;20040;-77
2021/04/19 03:13:49;;;;;;;38.00;25.58;;;;;;;8.49;100.00;101148.09;5201012;28;20079;-78
2021/04/19 03:16:23;;;;;;;39.15;25.83;;;;;;;8.52;100.00;101155.00;5204545;28;20034;-78
2021/04/19 03:18:54;;;;;;;37.03;26.00;;;;;;;8.53;100.00;101149.75;5204272;28;20032;-78
2021/04/19 03:21:26;;;;;;;35.63;25.02;;;;;;;8.40;100.00;101156.06;5204189;28;20083;-78
2021/04/19 03:23:59;;;;;;;37.08;26.05;;;;;;;8.33;100.00;101154.47;5202626;28;20634;-78
2021/04/19 03:26:32;;;;;;;37.28;26.52;;;;;;;8.25;100.00;101156.31;5204299;28;20460;-77
2021/04/19 03:29:03;;;;;;;36.58;25.77;;;;;;;8.33;100.00;101154.47;5204075;28;20029;-77
2021/04/19 03:31:46;;;;;;;41.40;28.15;;;;;;;8.17;100.00;101155.56;5203759;28;20036;-77
2021/04/19 03:34:26;;;;;;;40.78;28.00;;;;;;;7.98;100.00;101156.75;5199113;28;20074;-78
2021/04/19 03:36:59;;;;;;;41.95;28.42;;;;;;;7.83;100.00;101156.97;5203384;28;20029;-78
2021/04/19 03:39:31;;;;;;;46.30;31.30;;;;;;;7.78;100.00;101170.94;5203944;28;20030;-78
2021/04/19 03:42:03;;;;;;;44.47;29.50;;;;;;;7.90;100.00;101158.59;5203243;28;20064;-77
2021/04/19 03:44:37;;;;;;;42.58;28.73;;;;;;;7.89;100.00;101164.69;5202661;28;20025;-77
2021/04/19 03:47:11;;;;;;;43.07;27.80;;;;;;;8.06;100.00;101167.03;5202098;28;20021;-77
2021/04/19 03:49:48;;;;;;;43.97;28.42;;;;;;;8.01;100.00;101168.88;5202844;28;20060;-77
2021/04/19 03:52:31;;;;;;;45.58;30.02;;;;;;;7.81;100.00;101171.75;5199387;28;20056;-77
2021/04/19 03:55:05;;;;;;;40.88;27.85;;;;;;;7.98;100.00;101169.75;5201715;28;20068;-77
2021/04/19 03:57:35;;;;;;;42.95;27.92;;;;;;;7.81;100.00;101165.69;5202130;28;20040;-77
2021/04/19 04:00:10;;;;;;;39.65;27.15;;;;;;;7.97;100.00;101167.16;5202004;28;20034;-77
2021/04/19 04:02:43;;;;;;;39.33;26.08;;;;;;;7.93;100.00;101166.38;5201362;28;20079;-77
2021/04/19 04:05:15;;;;;;;39.35;27.02;;;;;;;7.87;100.00;101171.66;5201873;28;20030;-77
2021/04/19 04:07:47;;;;;;;39.00;25.90;;;;;;;7.73;100.00;101162.34;5200544;28;20059;-77
2021/04/19 04:10:19;;;;;;;40.67;26.30;;;;;;;7.59;100.00;101172.09;5198402;28;20029;-77
2021/04/19 04:12:49;;;;;;;38.80;26.05;;;;;;;7.67;100.00;101168.50;5202929;28;20029;-77
2021/04/19 04:15:20;;;;;;;40.05;27.80;;;;;;;7.50;100.00;101172.22;5202021;28;20022;-77
2021/04/19 04:17:50;;;;;;;36.08;24.65;;;;;;;7.65;100.00;101177.19;5202464;28;20061;-77
2021/04/19 04:20:20;;;;;;;34.95;24.75;;;;;;;7.66;100.00;101177.19;5203152;28;20042;-77
2021/04/19 04:22:51;;;;;;;41.55;27.73;;;;;;;7.44;100.00;101183.56;5202935;28;20364;-77
2021/04/19 04:25:22;;;;;;;41.45;28.17;;;;;;;7.51;100.00;101176.56;5202910;28;20029;-76
2021/04/19 04:27:52;;;;;;;42.85;27.88;;;;;;;7.53;100.00;101182.59;5200519;28;20553;-77
2021/04/19 04:30:23;;;;;;;42.70;27.70;;;;;;;7.65;100.00;101185.00;5202911;28;20034;-78
2021/04/19 04:32:53;;;;;;;36.17;24.83;;;;;;;7.71;100.00;101185.78;5201646;28;20049;-77
2021/04/19 04:35:23;;;;;;;36.90;25.15;;;;;;;7.62;100.00;101180.72;5203299;28;20059;-78
2021/04/19 04:37:54;;;;;;;36.17;25.73;;;;;;;7.69;100.00;101187.53;5203556;28;20037;-77
2021/04/19 04:40:26;;;;;;;34.75;23.50;;;;;;;7.78;100.00;101191.75;5203155;28;20036;-77
2021/04/19 04:43:13;;;;;;;35.72;23.65;;;;;;;7.99;100.00;101188.81;5203527;28;20033;-77
2021/04/19 04:45:43;;;;;;;34.28;24.10;;;;;;;7.70;100.00;101199.66;5203112;28;20018;-77
2021/04/19 04:48:25;;;;;;;37.38;25.90;;;;;;;7.45;100.00;101198.28;5201506;28;20034;-77
2021/04/19 04:51:01;;;;;;;40.03;26.17;;;;;;;7.43;100.00;101199.19;5201994;28;20470;-78
2021/04/19 04:53:37;;;;;;;39.72;25.40;;;;;;;7.51;100.00;101198.19;5202095;28;20091;-77
2021/04/19 04:56:11;;;;;;;38.80;24.98;;;;;;;7.62;100.00;101191.13;5201524;28;20030;-77
2021/04/19 04:58:44;;;;;;;34.22;23.50;;;;;;;7.63;100.00;101191.97;5204517;28;20475;-78
2021/04/19 05:01:15;;;;;;;37.85;24.65;;;;;;;7.59;100.00;101201.56;5205327;28;20051;-78
2021/04/19 05:03:47;;;;;;;37.45;24.13;;;;;;;7.45;100.00;101194.81;5201259;28;20072;-79
2021/04/19 05:06:19;;;;;;;39.72;25.27;;;;;;;7.53;100.00;101204.25;5205188;28;20033;-78
2021/04/19 05:08:50;;;;;;;42.17;26.17;;;;;;;7.72;100.00;101197.91;5205079;28;20029;-78
2021/04/19 05:11:20;;;;;;;40.55;24.33;;;;;;;7.73;100.00;101191.81;5203157;28;20450;-77
2021/04/19 05:13:59;;;;;;;40.38;25.55;;;;;;;7.81;100.00;101197.78;5202394;28;20078;-77
2021/04/19 05:16:31;;;;;;;41.10;26.15;;;;;;;7.61;100.00;101210.22;5202087;28;20076;-78
2021/04/19 05:19:03;;;;;;;41.78;26.58;;;;;;;7.67;100.00;101207.53;5205122;28;20025;-77
2021/04/19 05:21:35;;;;;;;45.50;26.55;;;;;;;7.90;100.00;101213.25;5207059;28;20041;-78
2021/04/19 05:24:06;;;;;;;42.03;26.30;;;;;;;7.95;100.00;101210.59;5207419;28;20025;-77
2021/04/19 05:26:36;;;;;;;44.03;27.63;;;;;;;7.79;100.00;101203.88;5207893;28;20037;-77
2021/04/19 05:29:07;;;;;;;42.45;27.33;;;;;;;7.78;100.00;101208.25;5206568;28;20037;-79
2021/04/19 05:31:37;;;;;;;41.72;27.65;;;;;;;7.76;100.00;101209.13;5207709;28;20483;-79
2021/04/19 05:34:08;;;;;;;41.65;26.67;;;;;;;7.97;100.00;101220.09;5208333;28;20494;-77
2021/04/19 05:36:39;;;;;;;47.03;27.90;;;;;;;7.92;100.00;101213.25;5208419;28;20032;-77
2021/04/19 05:39:10;;;;;;;39.85;25.38;;;;;;;7.96;100.00;101225.31;5208134;28;20041;-78
2021/04/19 05:41:41;;;;;;;39.58;24.60;;;;;;;7.98;100.00;101216.63;5206927;28;20029;-79
2021/04/19 05:44:12;;;;;;;38.10;24.88;;;;;;;8.12;100.00;101221.59;5209484;28;20029;-77
2021/04/19 05:46:43;;;;;;;36.75;23.25;;;;;;;7.94;100.00;101222.75;5208665;28;20030;-76
2021/04/19 05:49:13;;;;;;;37.40;24.42;;;;;;;7.76;100.00;101236.03;5208321;28;20025;-79
2021/04/19 05:51:45;;;;;;;43.50;25.50;;;;;;;7.81;100.00;101228.13;5209409;28;20394;-77
2021/04/19 05:54:17;;;;;;;44.33;26.20;;;;;;;7.66;100.00;101239.63;5208429;28;20029;-79
2021/04/19 05:57:15;;;;;;;41.65;25.40;;;;;;;7.63;100.00;101229.25;5205926;28;20032;-77
2021/04/19 06:00:05;;;;;;;43.05;25.48;;;;;;;7.52;100.00;101238.94;5196853;28;20099;-77
2021/04/19 06:03:00;;;;;;;42.63;25.63;;;;;;;7.63;100.00;101242.25;5205205;28;20045;-76
2021/04/19 06:05:38;;;;;;;44.78;25.23;;;;;;;7.54;100.00;101241.53;5204102;28;20033;-77
2021/04/19 06:08:15;;;;;;;39.22;23.38;;;;;;;7.69;100.00;101239.56;5204487;28;20021;-77
2021/04/19 06:10:49;;;;;;;42.08;24.90;;;;;;;7.54;100.00;101247.56;5201610;28;20414;-77
2021/04/19 06:13:21;;;;;;;45.38;25.92;;;;;;;7.47;100.00;101243.34;5189405;28;20033;-78
2021/04/19 06:15:53;;;;;;;45.53;25.13;;;;;;;7.53;100.00;101239.81;5203740;28;20040;-78
2021/04/19 06:18:26;;;;;;;44.35;24.80;;;;;;;7.53;100.00;101245.84;5203328;28;20067;-77
2021/04/19 06:20:58;;;;;;;49.80;25.52;;;;;;;7.46;100.00;101240.75;5203376;28;20021;-77
2021/04/19 06:23:29;;;;;;;43.88;25.40;;;;;;;7.57;100.00;101239.75;5205044;28;20053;-77
2021/04/19 06:25:59;;;;;;;44.20;25.65;;;;;;;7.60;100.00;101239.72;5204146;28;20052;-78
2021/04/19 06:28:29;;;;;;;50.90;26.88;;;;;;;7.53;100.00;101248.44;5203228;28;20083;-77
2021/04/19 06:31:00;;;;;;;46.25;25.88;;;;;;;7.58;100.00;101246.69;5204008;28;20026;-77
2021/04/19 06:33:32;;;;;;;47.15;25.83;;;;;;;7.45;100.00;101246.81;5203874;28;20039;-78
2021/04/19 06:36:03;;;;;;;46.78;25.80;;;;;;;7.52;100.00;101241.53;5204799;28;20043;-77
2021/04/19 06:38:33;;;;;;;46.72;24.17;;;;;;;7.54;100.00;101249.31;5204633;28;20665;-77
2021/04/19 06:41:03;;;;;;;44.17;24.60;;;;;;;7.36;100.00;101253.00;5204964;28;20029;-78
2021/04/19 06:43:34;;;;;;;43.50;24.90;;;;;;;7.37;100.00;101251.28;5203049;28;20029;-78
2021/04/19 06:46:04;;;;;;;47.00;26.08;;;;;;;7.29;100.00;101251.34;5203447;28;20454;-77
2021/04/19 06:48:36;;;;;;;41.83;24.48;;;;;;;7.38;100.00;101253.84;5203180;28;20035;-77
2021/04/19 06:51:10;;;;;;;41.30;24.83;;;;;;;7.50;100.00;101237.25;5203366;28;20095;-77
2021/04/19 06:53:41;;;;;;;44.88;24.27;;;;;;;7.43;100.00;101246.88;5201630;28;20044;-77
2021/04/19 06:56:12;;;;;;;40.45;23.38;;;;;;;7.68;100.00;101237.84;5202664;28;20025;-76
2021/04/19 06:58:43;;;;;;;40.10;22.73;;;;;;;7.99;100.00;101238.28;5204546;28;20036;-79
2021/04/19 07:01:18;;;;;;;38.22;22.13;;;;;;;8.15;100.00;101244.97;5204394;28;20108;-77
2021/04/19 07:03:54;;;;;;;42.08;23.02;;;;;;;8.18;100.00;101239.78;5201366;28;20655;-77
2021/04/19 07:06:27;;;;;;;38.65;22.95;;;;;;;8.25;100.00;101241.41;5209944;28;20026;-78
2021/04/19 07:09:24;;;;;;;34.22;20.45;;;;;;;8.41;100.00;101243.72;5209981;28;20021;-77
2021/04/19 07:12:19;;;;;;;34.13;20.48;;;;;;;8.44;100.00;101233.28;5206694;28;20059;-79
2021/04/19 07:14:52;;;;;;;33.53;19.63;;;;;;;8.33;100.00;101243.00;5205356;28;20087;-78
2021/04/19 07:17:22;;;;;;;33.05;20.60;;;;;;;8.04;100.00;101239.09;5207404;28;20068;-79
2021/04/19 07:19:52;;;;;;;32.58;19.63;;;;;;;8.33;100.00;101250.81;5207454;28;20628;-79
2021/04/19 07:22:23;;;;;;;33.80;20.70;;;;;;;8.46;100.00;101241.94;5207124;28;20044;-78
2021/04/19 07:24:53;;;;;;;35.15;20.75;;;;;;;9.08;100.00;101233.00;5204586;28;20081;-78
2021/04/19 07:27:24;;;;;;;37.55;21.30;;;;;;;9.38;100.00;101230.63;5205071;28;20056;-77
2021/04/19 07:29:54;;;;;;;36.45;20.98;;;;;;;9.47;100.00;101230.47;5205360;28;20394;-78
2021/04/19 07:32:39;;;;;;;35.00;20.58;;;;;;;9.49;100.00;101236.50;5205295;28;20108;-79
2021/04/19 07:35:10;;;;;;;33.13;20.17;;;;;;;9.35;100.00;101236.75;5204048;28;20607;-78
2021/04/19 07:38:02;;;;;;;35.55;20.73;;;;;;;9.30;100.00;101240.38;5205403;28;20048;-78
2021/04/19 07:40:48;;;;;;;36.75;20.10;;;;;;;9.30;100.00;101237.75;5203600;28;20025;-78
2021/04/19 07:43:24;;;;;;;32.90;19.67;;;;;;;9.05;100.00;101244.31;5196274;28;20037;-77
2021/04/19 07:46:07;;;;;;;33.08;20.02;;;;;;;8.96;100.00;101254.06;5205441;28;20391;-78
2021/04/19 07:48:45;;;;;;;35.42;20.83;;;;;;;8.47;100.00;101256.66;5206210;28;20029;-78
2021/04/19 07:51:29;;;;;;;34.55;20.80;;;;;;;8.61;100.00;101254.69;5194001;28;20104;-79
2021/04/19 07:54:11;;;;;;;35.38;20.77;;;;;;;8.64;100.00;101262.47;5205727;28;20036;-78
2021/04/19 07:57:04;;;;;;;32.08;19.60;;;;;;;8.59;100.00;101261.66;5205954;28;20021;-77
2021/04/19 07:59:38;;;;;;;33.70;20.00;;;;;;;8.59;100.00;101266.88;5197567;28;20120;-77
2021/04/19 08:02:14;;;;;;;33.65;20.38;;;;;;;8.54;100.00;101260.03;5203325;28;20148;-78
2021/04/19 08:04:47;;;;;;;36.08;19.67;;;;;;;8.56;100.00;101269.53;5203204;28;20496;-77
2021/04/19 08:07:23;;;;;;;36.13;20.50;;;;;;;8.68;100.00;101256.31;5200222;28;20036;-77
2021/04/19 08:10:05;;;;;;;35.35;20.23;;;;;;;8.76;100.00;101254.41;5203733;28;20049;-79
2021/04/19 08:12:39;;;;;;;33.35;19.15;;;;;;;8.96;100.00;101260.16;5204038;28;20059;-77
2021/04/19 08:15:18;;;;;;;34.30;19.48;;;;;;;9.03;100.00;101263.50;5203247;28;20040;-78
2021/04/19 08:17:48;;;;;;;28.58;17.42;;;;;;;8.84;100.00;101257.75;5200252;28;20125;-78
2021/04/19 08:20:19;;;;;;;30.90;17.92;;;;;;;8.21;100.00;101261.41;5203844;28;20531;-77
2021/04/19 08:22:49;;;;;;;29.40;18.48;;;;;;;8.11;100.00;101261.53;5203269;28;20040;-77
2021/04/19 08:25:21;;;;;;;27.17;18.08;;;;;;;8.45;100.00;101258.44;5203803;28;20029;-77
2021/04/19 08:28:22;;;;;;;30.42;18.42;;;;;;;8.65;100.00;101268.50;5202714;28;20033;-77
2021/04/19 08:30:55;;;;;;;30.55;19.42;;;;;;;8.91;100.00;101256.75;5200847;28;20075;-78
2021/04/19 08:33:27;;;;;;;26.75;16.63;;;;;;;9.21;100.00;101264.88;5202399;28;20052;-79
2021/04/19 08:35:57;;;;;;;26.58;16.15;;;;;;;9.41;100.00;101259.25;5202887;28;20490;-77
2021/04/19 08:38:30;;;;;;;29.45;17.10;;;;;;;9.33;100.00;101250.75;5203202;28;20108;-78
2021/04/19 08:41:01;;;;;;;28.42;17.73;;;;;;;9.42;100.00;101258.38;5203694;28;20053;-78
2021/04/19 08:43:35;;;;;;;28.60;17.20;;;;;;;9.79;100.00;101252.38;5202501;28;20490;-77
2021/04/19 08:46:06;;;;;;;26.15;16.48;;;;;;;9.77;100.00;101254.16;5199761;28;20029;-78
2021/04/19 08:48:36;;;;;;;31.95;17.85;;;;;;;9.40;100.00;101257.53;5203402;28;20029;-78
2021/04/19 08:51:07;;;;;;;26.98;17.20;;;;;;;9.53;100.00;101257.28;5201158;28;20048;-78
2021/04/19 08:53:37;;;;;;;28.58;17.60;;;;;;;9.33;100.00;101248.13;5207927;28;20438;-77
2021/04/19 08:56:07;;;;;;;34.35;18.67;;;;;;;9.18;100.00;101253.66;5210386;28;20032;-78
2021/04/19 08:58:38;;;;;;;28.13;18.38;;;;;;;9.58;100.00;101244.13;5204752;28;20037;-77
2021/04/19 09:01:08;;;;;;;30.10;19.00;;;;;;;9.73;100.00;101251.63;5199043;28;20112;-78
2021/04/19 09:03:39;;;;;;;28.45;17.58;;;;;;;9.65;100.00;101248.34;5201192;28;20674;-78
2021/04/19 09:06:15;;;;;;;29.00;18.45;;;;;;;9.81;100.00;101252.34;5201389;28;20072;-77
2021/04/19 09:08:47;;;;;;;28.48;18.02;;;;;;;9.95;99.63;101248.53;5200904;28;20037;-77
2021/04/19 09:11:27;;;;;;;28.15;17.88;;;;;;;10.06;98.98;101254.41;5202720;28;20044;-78
2021/04/19 09:14:10;;;;;;;28.27;17.92;;;;;;;10.18;99.28;101256.72;5204768;28;20025;-80
2021/04/19 09:16:43;;;;;;;31.10;20.02;;;;;;;9.56;100.00;101259.84;5205755;28;20033;-78
2021/04/19 09:19:20;;;;;;;28.65;19.00;;;;;;;9.39;100.00;101253.22;5207486;28;20022;-78
2021/04/19 09:21:51;;;;;;;30.33;19.00;;;;;;;9.41;100.00;101248.81;5201997;28;20384;-79
2021/04/19 09:24:22;;;;;;;31.80;19.33;;;;;;;9.95;100.00;101242.44;5204835;28;20028;-78
2021/04/19 09:26:55;;;;;;;28.88;18.60;;;;;;;10.32;98.18;101254.66;5207897;28;20719;-80
2021/04/19 09:29:26;;;;;;;25.45;16.75;;;;;;;10.78;96.79;101250.03;5205190;28;20109;-79
2021/04/19 09:32:06;;;;;;;28.73;19.25;;;;;;;10.00;99.79;101254.50;5207774;28;20042;-77
2021/04/19 09:34:52;;;;;;;24.85;17.05;;;;;;;10.55;97.03;101251.50;5203988;28;20021;-79
2021/04/19 09:37:48;;;;;;;25.88;16.92;;;;;;;10.81;95.89;101260.41;5204197;28;20041;-78
2021/04/19 09:40:23;;;;;;;22.88;15.75;;;;;;;10.95;94.05;101250.44;5219402;28;20167;-78
2021/04/19 09:42:54;;;;;;;21.73;15.27;;;;;;;10.85;93.89;101250.72;5208751;28;20024;-79
2021/04/19 09:45:46;;;;;;;21.02;14.48;;;;;;;10.87;94.02;101249.78;5208085;28;20033;-76
2021/04/19 09:48:26;;;;;;;20.45;14.02;;;;;;;11.86;90.10;101239.13;5203674;28;20037;-79
2021/04/19 09:50:57;;;;;;;18.55;13.80;;;;;;;11.65;89.82;101234.53;5208151;28;20033;-77
2021/04/19 09:53:30;;;;;;;19.98;14.50;;;;;;;12.06;88.44;101241.97;5205894;28;20036;-79
2021/04/19 09:56:01;;;;;;;18.38;13.52;;;;;;;11.54;89.62;101234.81;5206641;28;20029;-76
2021/04/19 09:58:32;;;;;;;19.85;14.30;;;;;;;11.56;91.51;101240.88;5206015;28;20040;-77
2021/04/19 10:01:02;;;;;;;18.67;13.45;;;;;;;11.95;89.59;101234.47;5205852;28;20108;-79
2021/04/19 10:03:37;;;;;;;20.77;14.85;;;;;;;11.76;89.08;101230.69;5206156;28;20060;-77
2021/04/19 10:06:09;;;;;;;19.23;13.70;;;;;;;12.24;86.32;101223.94;5207396;28;20577;-78
2021/04/19 10:08:42;;;;;;;22.52;14.32;;;;;;;12.39;86.69;101223.44;5208257;28;20295;-77
2021/04/19 10:11:13;;;;;;;21.10;14.10;;;;;;;12.51;86.13;101224.81;5208470;28;20495;-78
2021/04/19 10:13:43;;;;;;;21.30;14.65;;;;;;;12.57;87.27;101225.47;5206832;28;20407;-77
2021/04/19 10:16:14;;;;;;;18.52;13.65;;;;;;;12.71;84.99;101225.88;5209088;28;20022;-79
2021/04/19 10:18:50;;;;;;;21.10;14.65;;;;;;;12.06;87.02;101224.53;5221364;23;20061;-79
2021/04/19 10:21:29;;;;;;;24.05;15.93;;;;;;;12.03;89.08;101221.13;5188027;28;20506;-79
2021/04/19 10:23:59;;;;;;;22.70;14.77;;;;;;;12.05;87.88;101233.28;5176760;28;20029;-80
2021/04/19 10:26:32;;;;;;;19.20;14.73;;;;;;;12.57;86.43;101216.72;5192445;28;20037;-80
2021/04/19 10:29:17;;;;;;;21.90;15.38;;;;;;;12.70;86.16;101211.03;5178293;28;20022;-80
2021/04/19 10:31:49;;;;;;;20.08;14.88;;;;;;;12.51;85.77;101215.19;5156128;28;20025;-79
2021/04/19 10:34:21;;;;;;;20.50;14.45;;;;;;;12.29;86.85;101214.16;5170631;28;20034;-80
2021/04/19 10:36:55;;;;;;;19.95;13.80;;;;;;;12.53;86.04;101209.88;5172531;28;20027;-80
2021/04/19 10:39:30;;;;;;;20.05;13.60;;;;;;;11.91;89.36;101201.41;5176021;28;20025;-80
2021/04/19 10:42:04;;;;;;;18.95;13.45;;;;;;;12.26;87.57;101209.00;5171671;28;20026;-79
2021/04/19 10:44:42;;;;;;;21.10;15.02;;;;;;;11.73;88.72;101212.44;5156926;28;20034;-80
2021/04/19 10:47:24;;;;;;;19.42;14.02;;;;;;;11.64;87.37;101219.72;5150386;28;20022;-79
2021/04/19 10:49:55;;;;;;;19.50;13.93;;;;;;;12.06;86.65;101208.78;5170719;28;20030;-78
2021/04/19 10:52:26;;;;;;;24.15;17.25;;;;;;;12.41;87.30;101205.03;5179742;28;20029;-80
2021/04/19 10:54:56;;;;;;;23.08;16.23;;;;;;;12.76;86.42;101212.56;5169287;28;20034;-80
2021/04/19 10:57:27;;;;;;;23.45;17.58;;;;;;;12.76;86.40;101208.19;5165977;28;20041;-79
2021/04/19 10:59:59;;;;;;;24.85;18.98;;;;;;;12.98;84.80;101198.69;5156978;28;20030;-79
2021/04/19 11:02:30;;;;;;;28.48;19.45;;;;;;;12.88;85.60;101207.78;5150449;28;20030;-79
2021/04/19 11:05:00;;;;;;;24.25;17.30;;;;;;;12.95;83.87;101204.03;5167874;28;20054;-80
2021/04/19 11:07:35;;;;;;;22.35;17.02;;;;;;;13.22;83.25;101198.66;5169030;28;20026;-79
2021/04/19 11:10:15;;;;;;;23.83;17.52;;;;;;;13.64;82.84;101202.34;5150068;28;20034;-78
2021/04/19 11:12:59;;;;;;;23.58;17.60;;;;;;;12.66;85.55;101206.78;5156924;28;20397;-79
2021/04/19 11:15:42;;;;;;;25.88;16.63;;;;;;;13.12;84.66;101204.31;5173127;28;20021;-78
2021/04/19 11:18:24;;;;;;;23.67;16.88;;;;;;;13.30;83.50;101199.25;5164554;28;20030;-80
2021/04/19 11:20:56;;;;;;;22.45;16.50;;;;;;;13.78;83.25;101199.19;5169443;28;20407;-79
2021/04/19 11:23:31;;;;;;;25.63;17.67;;;;;;;14.35;81.41;101195.13;5154457;28;20062;-80
2021/04/19 11:26:10;;;;;;;27.27;18.48;;;;;;;14.12;81.33;101189.06;5168439;28;20879;-79
2021/04/19 11:28:44;;;;;;;26.00;17.60;;;;;;;14.12;80.27;101186.41;5173585;28;20480;-81
2021/04/19 11:31:19;;;;;;;22.30;17.00;;;;;;;14.38;80.29;101192.38;5153743;28;20465;-78
2021/04/19 11:34:06;;;;;;;21.02;15.23;;;;;;;13.52;81.02;101188.78;5155686;28;20542;-80
2021/04/19 11:36:43;;;;;;;22.77;15.05;;;;;;;14.08;79.32;101188.31;5169669;28;20034;-80
2021/04/19 11:39:19;;;;;;;20.95;14.70;;;;;;;13.49;82.27;101192.41;5168317;28;20028;-80
2021/04/19 11:41:51;;;;;;;23.98;15.55;;;;;;;13.64;81.62;101189.22;5151593;28;20037;-80